createdAt,value
2018-06-22T00:00:44.289Z,12.67
2018-06-22T00:01:44.270Z,12.82
2018-06-22T00:02:44.247Z,12.71
2018-06-22T00:03:44.225Z,12.74
2018-06-22T00:04:44.206Z,12.74
2018-06-22T00:05:44.193Z,12.72
2018-06-22T00:06:44.168Z,12.75
2018-06-22T00:07:44.148Z,12.68
2018-06-22T00:08:44.129Z,12.68
2018-06-22T00:09:44.107Z,12.75
2018-06-22T00:10:44.087Z,12.74
2018-06-22T00:11:44.065Z,12.75
2018-06-22T00:12:44.046Z,12.65
2018-06-22T00:13:44.027Z,12.62
2018-06-22T00:14:44.002Z,12.72
2018-06-22T00:15:43.980Z,12.71
2018-06-22T00:16:43.962Z,12.65
2018-06-22T00:17:43.941Z,12.64
2018-06-22T00:18:43.926Z,12.60
2018-06-22T00:19:43.899Z,12.62
2018-06-22T00:20:43.878Z,12.65
2018-06-22T00:21:43.864Z,12.67
2018-06-22T00:22:43.837Z,12.62
2018-06-22T00:23:43.826Z,12.72
2018-06-22T00:24:43.797Z,12.74
2018-06-22T00:25:43.782Z,12.71
2018-06-22T00:26:43.759Z,12.77
2018-06-22T00:27:43.751Z,12.72
2018-06-22T00:28:43.720Z,12.71
2018-06-22T00:29:43.694Z,12.68
2018-06-22T00:30:43.678Z,12.62
2018-06-22T00:31:43.658Z,12.65
2018-06-22T00:32:43.636Z,12.59
2018-06-22T00:33:43.619Z,12.57
2018-06-22T00:34:43.596Z,12.68
2018-06-22T00:35:43.572Z,12.60
2018-06-22T00:36:43.550Z,12.60
2018-06-22T00:37:43.534Z,12.62
2018-06-22T00:38:43.515Z,12.68
2018-06-22T00:39:43.494Z,12.56
2018-06-22T00:40:43.471Z,12.74
2018-06-22T00:41:43.452Z,12.74
2018-06-22T00:42:43.430Z,12.71
2018-06-22T00:43:43.407Z,12.72
2018-06-22T00:44:43.390Z,12.72
2018-06-22T00:45:43.368Z,12.70
2018-06-22T00:46:43.344Z,12.74
2018-06-22T00:47:43.325Z,12.72
2018-06-22T00:48:43.310Z,12.68
2018-06-22T00:49:43.288Z,12.72
2018-06-22T00:50:43.262Z,12.71
2018-06-22T00:51:43.246Z,12.67
2018-06-22T00:52:43.221Z,12.74
2018-06-22T00:53:43.202Z,12.79
2018-06-22T00:54:43.179Z,12.65
2018-06-22T00:55:43.160Z,12.75
2018-06-22T00:56:43.141Z,12.70
2018-06-22T00:57:43.118Z,12.71
2018-06-22T00:58:43.096Z,12.72
2018-06-22T00:59:43.082Z,12.64
2018-06-22T01:00:43.059Z,12.74
2018-06-22T01:01:43.040Z,12.68
2018-06-22T01:02:43.014Z,12.64
2018-06-22T01:03:42.998Z,12.68
2018-06-22T01:04:42.975Z,12.59
2018-06-22T01:05:42.954Z,12.67
2018-06-22T01:06:42.937Z,12.62
2018-06-22T01:07:42.915Z,12.64
2018-06-22T01:08:42.896Z,12.56
2018-06-22T01:09:42.878Z,12.59
2018-06-22T01:10:42.856Z,12.64
2018-06-22T01:11:42.840Z,12.67
2018-06-22T01:12:42.858Z,12.54
2018-06-22T01:13:45.744Z,12.57
2018-06-22T01:14:42.768Z,12.57
2018-06-22T01:15:42.754Z,12.59
2018-06-22T01:16:42.730Z,12.54
2018-06-22T01:17:42.711Z,12.65
2018-06-22T01:18:42.689Z,12.59
2018-06-22T01:19:42.665Z,12.68
2018-06-22T01:20:42.648Z,12.53
2018-06-22T01:21:42.629Z,12.52
2018-06-22T01:22:42.606Z,12.46
2018-06-22T01:23:42.582Z,12.52
2018-06-22T01:24:42.562Z,12.52
2018-06-22T01:25:42.543Z,12.49
2018-06-22T01:26:42.520Z,12.49
2018-06-22T01:27:42.499Z,12.49
2018-06-22T01:28:42.486Z,12.52
2018-06-22T01:29:42.459Z,12.50
2018-06-22T01:30:42.437Z,12.56
2018-06-22T01:31:42.420Z,12.45
2018-06-22T01:32:42.395Z,12.46
2018-06-22T01:33:42.379Z,12.45
2018-06-22T01:34:42.359Z,12.42
2018-06-22T01:35:42.338Z,12.39
2018-06-22T01:36:42.314Z,12.38
2018-06-22T01:37:42.294Z,12.39
2018-06-22T01:38:42.274Z,12.35
2018-06-22T01:39:42.253Z,12.32
2018-06-22T01:40:42.232Z,12.29
2018-06-22T01:41:42.212Z,12.23
2018-06-22T01:42:42.197Z,12.28
2018-06-22T01:43:42.170Z,12.31
2018-06-22T01:44:42.148Z,12.27
2018-06-22T01:45:42.130Z,12.31
2018-06-22T01:46:42.107Z,12.35
2018-06-22T01:47:42.087Z,12.31
2018-06-22T01:48:42.066Z,12.27
2018-06-22T01:49:42.047Z,12.19
2018-06-22T01:50:42.027Z,12.21
2018-06-22T01:51:42.004Z,12.21
2018-06-22T01:52:41.983Z,12.31
2018-06-22T01:53:41.964Z,12.28
2018-06-22T01:54:41.942Z,12.29
2018-06-22T01:55:41.922Z,12.32
2018-06-22T01:56:41.902Z,12.34
2018-06-22T01:57:41.882Z,12.24
2018-06-22T01:58:41.858Z,12.35
2018-06-22T01:59:41.844Z,12.32
2018-06-22T02:00:41.820Z,12.27
2018-06-22T02:01:41.796Z,12.27
2018-06-22T02:02:41.774Z,12.24
2018-06-22T02:03:41.758Z,12.31
2018-06-22T02:04:41.733Z,12.20
2018-06-22T02:05:41.715Z,12.13
2018-06-22T02:06:41.691Z,12.16
2018-06-22T02:07:41.669Z,12.05
2018-06-22T02:08:41.654Z,12.02
2018-06-22T02:09:41.630Z,12.04
2018-06-22T02:10:41.608Z,12.05
2018-06-22T02:11:41.587Z,12.10
2018-06-22T02:12:41.568Z,12.13
2018-06-22T02:13:41.550Z,12.07
2018-06-22T02:14:41.524Z,12.10
2018-06-22T02:15:41.507Z,12.07
2018-06-22T02:16:41.483Z,12.07
2018-06-22T02:17:41.462Z,12.12
2018-06-22T02:18:41.441Z,12.07
2018-06-22T02:19:41.425Z,12.07
2018-06-22T02:20:41.400Z,12.13
2018-06-22T02:21:41.378Z,12.16
2018-06-22T02:22:41.405Z,12.17
2018-06-22T02:23:41.340Z,12.21
2018-06-22T02:24:41.322Z,12.19
2018-06-22T02:25:41.301Z,12.17
2018-06-22T02:26:41.279Z,12.20
2018-06-22T02:27:41.256Z,12.21
2018-06-22T02:28:41.238Z,12.20
2018-06-22T02:29:41.215Z,12.20
2018-06-22T02:30:41.194Z,12.19
2018-06-22T02:31:41.169Z,12.31
2018-06-22T02:32:41.151Z,12.34
2018-06-22T02:33:41.132Z,12.27
2018-06-22T02:34:41.109Z,12.35
2018-06-22T02:35:41.090Z,12.38
2018-06-22T02:36:41.064Z,12.39
2018-06-22T02:37:41.044Z,12.35
2018-06-22T02:38:41.065Z,12.50
2018-06-22T02:39:41.004Z,12.49
2018-06-22T02:40:40.980Z,12.54
2018-06-22T02:41:40.962Z,12.52
2018-06-22T02:42:40.940Z,12.47
2018-06-22T02:43:40.926Z,12.49
2018-06-22T02:44:40.905Z,12.53
2018-06-22T02:45:40.880Z,12.53
2018-06-22T02:46:40.856Z,12.50
2018-06-22T02:47:40.838Z,12.60
2018-06-22T02:48:40.814Z,12.53
2018-06-22T02:49:40.808Z,12.50
2018-06-22T02:50:40.771Z,12.59
2018-06-22T02:51:40.752Z,12.54
2018-06-22T02:52:40.731Z,12.52
2018-06-22T02:53:40.713Z,12.50
2018-06-22T02:54:40.687Z,12.50
2018-06-22T02:55:40.671Z,12.56
2018-06-22T02:56:40.647Z,12.62
2018-06-22T02:57:40.626Z,12.70
2018-06-22T02:58:40.609Z,12.54
2018-06-22T02:59:40.608Z,12.60
2018-06-22T03:00:40.563Z,12.52
2018-06-22T03:01:40.547Z,12.59
2018-06-22T03:02:40.524Z,12.56
2018-06-22T03:03:40.505Z,12.62
2018-06-22T03:04:40.483Z,12.64
2018-06-22T03:05:40.466Z,12.67
2018-06-22T03:06:40.441Z,12.57
2018-06-22T03:07:40.419Z,12.60
2018-06-22T03:08:40.402Z,12.57
2018-06-22T03:09:40.376Z,12.67
2018-06-22T03:10:40.358Z,12.64
2018-06-22T03:11:40.338Z,12.60
2018-06-22T03:12:40.318Z,12.64
2018-06-22T03:13:40.300Z,12.59
2018-06-22T03:14:40.278Z,12.62
2018-06-22T03:15:40.256Z,12.59
2018-06-22T03:16:40.230Z,12.60
2018-06-22T03:17:40.221Z,12.62
2018-06-22T03:18:40.190Z,12.57
2018-06-22T03:19:40.174Z,12.54
2018-06-22T03:20:40.154Z,12.57
2018-06-22T03:21:40.132Z,12.57
2018-06-22T03:22:40.106Z,12.65
2018-06-22T03:23:40.084Z,12.59
2018-06-22T03:24:40.070Z,12.64
2018-06-22T03:25:40.048Z,12.62
2018-06-22T03:26:40.023Z,12.65
2018-06-22T03:27:40.002Z,12.60
2018-06-22T03:28:39.984Z,12.57
2018-06-22T03:29:39.965Z,12.56
2018-06-22T03:30:39.941Z,12.57
2018-06-22T03:31:39.922Z,12.56
2018-06-22T03:32:39.902Z,12.64
2018-06-22T03:33:39.880Z,12.67
2018-06-22T03:34:39.861Z,12.54
2018-06-22T03:35:39.839Z,12.60
2018-06-22T03:36:39.820Z,12.65
2018-06-22T03:37:39.798Z,12.74
2018-06-22T03:38:39.779Z,12.74
2018-06-22T03:39:39.757Z,12.60
2018-06-22T03:40:39.735Z,12.71
2018-06-22T03:41:39.712Z,12.71
2018-06-22T03:42:39.697Z,12.70
2018-06-22T03:43:39.674Z,12.72
2018-06-22T03:44:39.652Z,12.70
2018-06-22T03:45:39.641Z,12.72
2018-06-22T03:46:39.607Z,12.71
2018-06-22T03:47:39.586Z,12.70
2018-06-22T03:48:39.563Z,12.67
2018-06-22T03:49:39.548Z,12.85
2018-06-22T03:50:39.523Z,12.77
2018-06-22T03:51:39.503Z,12.71
2018-06-22T03:52:39.483Z,12.67
2018-06-22T03:53:39.463Z,12.74
2018-06-22T03:54:39.445Z,12.64
2018-06-22T03:55:39.421Z,12.71
2018-06-22T03:56:39.401Z,12.72
2018-06-22T03:57:39.381Z,12.82
2018-06-22T03:58:39.362Z,12.75
2018-06-22T03:59:39.341Z,12.75
2018-06-22T04:00:39.316Z,12.79
2018-06-22T04:01:39.299Z,12.74
2018-06-22T04:02:39.279Z,12.65
2018-06-22T04:03:39.254Z,12.74
2018-06-22T04:04:39.238Z,12.83
2018-06-22T04:05:39.218Z,12.74
2018-06-22T04:06:39.197Z,12.67
2018-06-22T04:07:39.173Z,12.72
2018-06-22T04:08:39.154Z,12.85
2018-06-22T04:09:39.132Z,12.87
2018-06-22T04:10:39.114Z,12.89
2018-06-22T04:11:39.089Z,12.78
2018-06-22T04:12:39.075Z,12.82
2018-06-22T04:13:39.050Z,12.74
2018-06-22T04:14:39.028Z,12.74
2018-06-22T04:15:39.011Z,12.89
2018-06-22T04:16:38.987Z,12.79
2018-06-22T04:17:38.968Z,12.82
2018-06-22T04:18:38.946Z,12.87
2018-06-22T04:19:38.927Z,12.93
2018-06-22T04:20:38.905Z,12.90
2018-06-22T04:21:38.885Z,12.89
2018-06-22T04:22:38.868Z,12.90
2018-06-22T04:23:38.850Z,12.87
2018-06-22T04:24:38.821Z,12.95
2018-06-22T04:25:38.802Z,12.82
2018-06-22T04:26:38.784Z,12.83
2018-06-22T04:27:38.763Z,12.79
2018-06-22T04:28:38.744Z,12.82
2018-06-22T04:29:38.723Z,12.75
2018-06-22T04:30:38.702Z,12.77
2018-06-22T04:31:38.678Z,12.83
2018-06-22T04:32:38.665Z,12.85
2018-06-22T04:33:38.637Z,12.86
2018-06-22T04:34:38.618Z,12.70
2018-06-22T04:35:38.599Z,12.78
2018-06-22T04:36:38.576Z,12.77
2018-06-22T04:37:38.555Z,12.83
2018-06-22T04:38:38.564Z,12.71
2018-06-22T04:39:38.516Z,12.74
2018-06-22T04:40:38.492Z,12.65
2018-06-22T04:41:38.481Z,12.77
2018-06-22T04:42:38.454Z,12.68
2018-06-22T04:43:38.435Z,12.75
2018-06-22T04:44:38.414Z,12.86
2018-06-22T04:45:38.392Z,12.79
2018-06-22T04:46:38.369Z,12.85
2018-06-22T04:47:38.357Z,12.82
2018-06-22T04:48:38.334Z,12.85
2018-06-22T04:49:38.310Z,12.77
2018-06-22T04:50:38.290Z,12.79
2018-06-22T04:51:38.271Z,12.75
2018-06-22T04:52:38.252Z,12.79
2018-06-22T04:53:38.231Z,12.85
2018-06-22T04:54:38.209Z,12.83
2018-06-22T04:55:38.189Z,12.82
2018-06-22T04:56:38.166Z,12.89
2018-06-22T04:57:38.153Z,12.87
2018-06-22T04:58:38.125Z,12.95
2018-06-22T04:59:38.107Z,13.07
2018-06-22T05:00:38.091Z,13.04
2018-06-22T05:01:38.062Z,13.11
2018-06-22T05:02:38.044Z,13.12
2018-06-22T05:03:38.057Z,13.15
2018-06-22T05:04:38.002Z,13.20
2018-06-22T05:05:37.982Z,13.14
2018-06-22T05:06:37.963Z,13.17
2018-06-22T05:07:37.943Z,13.22
2018-06-22T05:08:37.918Z,13.14
2018-06-22T05:09:37.899Z,13.14
2018-06-22T05:10:37.885Z,13.19
2018-06-22T05:11:37.862Z,13.20
2018-06-22T05:12:37.839Z,13.22
2018-06-22T05:13:37.820Z,13.17
2018-06-22T05:14:37.796Z,13.17
2018-06-22T05:15:37.827Z,13.23
2018-06-22T05:16:37.758Z,13.19
2018-06-22T05:17:37.739Z,13.23
2018-06-22T05:18:37.714Z,13.11
2018-06-22T05:19:37.697Z,13.12
2018-06-22T05:20:37.677Z,13.11
2018-06-22T05:21:37.657Z,13.07
2018-06-22T05:22:37.702Z,13.10
2018-06-22T05:23:37.615Z,13.14
2018-06-22T05:24:37.596Z,13.11
2018-06-22T05:25:37.588Z,13.11
2018-06-22T05:26:37.559Z,13.14
2018-06-22T05:27:37.536Z,12.95
2018-06-22T05:28:37.515Z,13.01
2018-06-22T05:29:37.496Z,12.93
2018-06-22T05:30:37.477Z,12.93
2018-06-22T05:31:37.455Z,12.95
2018-06-22T05:32:37.436Z,13.00
2018-06-22T05:33:37.414Z,13.04
2018-06-22T05:34:37.395Z,13.05
2018-06-22T05:35:37.377Z,12.95
2018-06-22T05:36:37.355Z,12.92
2018-06-22T05:37:37.336Z,12.95
2018-06-22T05:38:37.309Z,13.04
2018-06-22T05:39:37.290Z,12.93
2018-06-22T05:40:37.270Z,13.01
2018-06-22T05:41:37.254Z,13.04
2018-06-22T05:42:37.233Z,13.15
2018-06-22T05:43:37.210Z,13.14
2018-06-22T05:44:37.188Z,13.25
2018-06-22T05:45:37.173Z,13.15
2018-06-22T05:46:37.146Z,13.15
2018-06-22T05:47:37.129Z,13.22
2018-06-22T05:48:37.112Z,13.22
2018-06-22T05:49:37.087Z,13.20
2018-06-22T05:50:37.088Z,13.19
2018-06-22T05:51:37.053Z,13.30
2018-06-22T05:52:37.031Z,13.29
2018-06-22T05:53:37.008Z,13.41
2018-06-22T05:54:36.986Z,13.49
2018-06-22T05:55:36.970Z,13.46
2018-06-22T05:56:36.966Z,13.45
2018-06-22T05:57:36.928Z,13.44
2018-06-22T05:58:36.906Z,13.49
2018-06-22T05:59:36.885Z,13.48
2018-06-22T06:00:36.874Z,13.57
2018-06-22T06:01:36.844Z,13.57
2018-06-22T06:02:36.827Z,13.62
2018-06-22T06:03:36.820Z,13.67
2018-06-22T06:04:36.789Z,13.60
2018-06-22T06:05:36.766Z,13.71
2018-06-22T06:06:36.747Z,13.81
2018-06-22T06:07:36.728Z,13.78
2018-06-22T06:08:36.721Z,13.81
2018-06-22T06:09:36.689Z,13.75
2018-06-22T06:10:36.667Z,13.81
2018-06-22T06:11:36.648Z,13.78
2018-06-22T06:12:36.699Z,13.75
2018-06-22T06:13:36.603Z,13.84
2018-06-22T06:14:36.589Z,13.85
2018-06-22T06:15:36.566Z,13.81
2018-06-22T06:16:36.544Z,13.96
2018-06-22T06:17:36.527Z,14.03
2018-06-22T06:18:36.505Z,14.21
2018-06-22T06:19:36.483Z,14.12
2018-06-22T06:20:36.464Z,14.28
2018-06-22T06:21:36.446Z,14.37
2018-06-22T06:22:36.427Z,14.47
2018-06-22T06:23:36.408Z,14.43
2018-06-22T06:24:36.395Z,14.37
2018-06-22T06:25:36.368Z,14.43
2018-06-22T06:26:36.345Z,14.33
2018-06-22T06:27:36.330Z,14.36
2018-06-22T06:28:36.309Z,14.42
2018-06-22T06:29:36.290Z,14.47
2018-06-22T06:30:36.269Z,14.57
2018-06-22T06:31:36.259Z,14.51
2018-06-22T06:32:36.232Z,14.55
2018-06-22T06:33:36.213Z,14.46
2018-06-22T06:34:36.188Z,14.32
2018-06-22T06:35:36.169Z,14.32
2018-06-22T06:36:36.150Z,14.33
2018-06-22T06:37:36.131Z,14.36
2018-06-22T06:38:36.114Z,14.46
2018-06-22T06:39:36.095Z,14.37
2018-06-22T06:40:36.073Z,14.29
2018-06-22T06:41:36.056Z,14.32
2018-06-22T06:42:36.032Z,14.32
2018-06-22T06:43:36.023Z,14.35
2018-06-22T06:44:35.996Z,14.28
2018-06-22T06:45:35.980Z,14.24
2018-06-22T06:46:35.958Z,14.18
2018-06-22T06:47:35.938Z,14.24
2018-06-22T06:48:35.917Z,14.36
2018-06-22T06:49:35.963Z,14.33
2018-06-22T06:50:35.880Z,14.28
2018-06-22T06:51:35.861Z,14.25
2018-06-22T06:52:35.844Z,14.17
2018-06-22T06:53:35.821Z,14.17
2018-06-22T06:54:35.808Z,14.15
2018-06-22T06:55:35.789Z,14.17
2018-06-22T06:56:35.766Z,14.15
2018-06-22T06:57:35.748Z,14.21
2018-06-22T06:58:35.738Z,14.17
2018-06-22T06:59:35.710Z,14.10
2018-06-22T07:00:35.687Z,14.22
2018-06-22T07:01:35.669Z,14.21
2018-06-22T07:02:35.674Z,14.15
2018-06-22T07:03:35.629Z,14.29
2018-06-22T07:04:35.608Z,14.33
2018-06-22T07:05:35.588Z,14.46
2018-06-22T07:06:35.575Z,14.61
2018-06-22T07:07:35.552Z,14.58
2018-06-22T07:08:35.539Z,14.65
2018-06-22T07:09:35.523Z,14.70
2018-06-22T07:10:35.496Z,14.73
2018-06-22T07:11:35.476Z,14.78
2018-06-22T07:12:35.460Z,14.84
2018-06-22T07:13:35.435Z,14.70
2018-06-22T07:14:35.421Z,14.72
2018-06-22T07:15:35.407Z,14.62
2018-06-22T07:16:35.377Z,14.70
2018-06-22T07:17:35.358Z,14.68
2018-06-22T07:18:35.340Z,14.58
2018-06-22T07:19:35.319Z,14.43
2018-06-22T07:20:35.300Z,14.29
2018-06-22T07:21:35.285Z,14.40
2018-06-22T07:22:35.267Z,14.27
2018-06-22T07:23:35.245Z,14.12
2018-06-22T07:24:35.229Z,14.21
2018-06-22T07:25:35.208Z,14.15
2018-06-22T07:26:35.186Z,14.17
2018-06-22T07:27:35.167Z,14.25
2018-06-22T07:28:35.149Z,14.29
2018-06-22T07:29:35.131Z,14.18
2018-06-22T07:30:35.126Z,14.24
2018-06-22T07:31:35.094Z,14.32
2018-06-22T07:32:35.076Z,14.28
2018-06-22T07:33:35.052Z,14.43
2018-06-22T07:34:35.036Z,14.46
2018-06-22T07:35:35.017Z,14.50
2018-06-22T07:36:34.995Z,14.47
2018-06-22T07:37:34.979Z,14.61
2018-06-22T07:38:34.961Z,14.58
2018-06-22T07:39:34.938Z,14.60
2018-06-22T07:40:34.921Z,14.69
2018-06-22T07:41:34.903Z,14.65
2018-06-22T07:42:34.881Z,14.72
2018-06-22T07:43:34.861Z,14.70
2018-06-22T07:44:34.894Z,14.83
2018-06-22T07:45:34.825Z,14.84
2018-06-22T07:46:34.805Z,15.02
2018-06-22T07:47:34.785Z,15.10
2018-06-22T07:48:34.766Z,15.23
2018-06-22T07:49:34.800Z,15.28
2018-06-22T07:50:34.734Z,15.44
2018-06-22T07:51:34.709Z,15.49
2018-06-22T07:52:34.692Z,15.62
2018-06-22T07:53:34.672Z,15.69
2018-06-22T07:54:34.657Z,15.71
2018-06-22T07:55:34.634Z,15.72
2018-06-22T07:56:34.617Z,15.59
2018-06-22T07:57:34.600Z,15.64
2018-06-22T07:58:34.607Z,15.56
2018-06-22T07:59:34.563Z,15.49
2018-06-22T08:00:34.544Z,15.57
2018-06-22T08:01:34.522Z,15.44
2018-06-22T08:02:34.504Z,15.39
2018-06-22T08:03:34.491Z,15.39
2018-06-22T08:04:34.471Z,15.41
2018-06-22T08:05:34.451Z,15.41
2018-06-22T08:06:34.432Z,15.38
2018-06-22T08:07:34.411Z,15.35
2018-06-22T08:08:34.393Z,15.35
2018-06-22T08:09:34.381Z,15.20
2018-06-22T08:10:34.354Z,15.02
2018-06-22T08:11:34.337Z,14.91
2018-06-22T08:12:34.327Z,14.75
2018-06-22T08:13:34.304Z,14.62
2018-06-22T08:14:34.283Z,14.46
2018-06-22T08:15:34.262Z,14.40
2018-06-22T08:16:34.249Z,14.50
2018-06-22T08:17:34.279Z,14.52
2018-06-22T08:18:34.211Z,14.45
2018-06-22T08:19:34.190Z,14.46
2018-06-22T08:20:34.170Z,14.64
2018-06-22T08:21:34.152Z,14.61
2018-06-22T08:22:34.131Z,14.51
2018-06-22T08:23:34.145Z,14.36
2018-06-22T08:24:34.093Z,14.21
2018-06-22T08:25:34.079Z,14.07
2018-06-22T08:26:34.057Z,13.95
2018-06-22T08:27:34.035Z,13.99
2018-06-22T08:28:34.024Z,14.04
2018-06-22T08:29:34.004Z,13.87
2018-06-22T08:30:33.983Z,14.02
2018-06-22T08:31:33.968Z,13.99
2018-06-22T08:32:33.941Z,13.96
2018-06-22T08:33:33.927Z,13.85
2018-06-22T08:34:33.906Z,13.84
2018-06-22T08:35:33.900Z,13.91
2018-06-22T08:36:33.871Z,13.81
2018-06-22T08:37:33.847Z,13.89
2018-06-22T08:38:33.832Z,13.92
2018-06-22T08:39:33.810Z,13.84
2018-06-22T08:40:33.791Z,13.88
2018-06-22T08:41:33.784Z,13.96
2018-06-22T08:42:33.755Z,13.99
2018-06-22T08:43:33.739Z,13.96
2018-06-22T08:44:33.722Z,13.88
2018-06-22T08:45:33.694Z,13.97
2018-06-22T08:46:33.672Z,13.89
2018-06-22T08:47:33.659Z,13.91
2018-06-22T08:48:33.633Z,14.00
2018-06-22T08:49:33.622Z,14.00
2018-06-22T08:50:33.595Z,13.95
2018-06-22T08:51:33.581Z,14.04
2018-06-22T08:52:33.561Z,14.06
2018-06-22T08:53:33.537Z,14.18
2018-06-22T08:54:33.519Z,14.17
2018-06-22T08:55:33.503Z,14.22
2018-06-22T08:56:33.479Z,14.40
2018-06-22T08:57:33.463Z,14.52
2018-06-22T08:58:33.443Z,14.52
2018-06-22T08:59:33.423Z,14.73
2018-06-22T09:00:33.402Z,14.73
2018-06-22T09:01:33.388Z,14.84
2018-06-22T09:02:33.367Z,14.91
2018-06-22T09:03:33.350Z,15.14
2018-06-22T09:04:33.330Z,15.25
2018-06-22T09:05:33.306Z,15.53
2018-06-22T09:06:33.288Z,15.72
2018-06-22T09:07:33.271Z,15.74
2018-06-22T09:08:33.265Z,15.90
2018-06-22T09:09:33.231Z,16.04
2018-06-22T09:10:33.212Z,16.24
2018-06-22T09:11:33.197Z,16.45
2018-06-22T09:12:33.210Z,16.46
2018-06-22T09:13:33.162Z,16.49
2018-06-22T09:14:33.213Z,16.42
2018-06-22T09:15:33.119Z,16.50
2018-06-22T09:16:33.106Z,16.61
2018-06-22T09:17:33.087Z,16.49
2018-06-22T09:18:33.070Z,16.34
2018-06-22T09:19:33.084Z,16.31
2018-06-22T09:20:33.032Z,16.28
2018-06-22T09:21:33.012Z,16.31
2018-06-22T09:22:32.992Z,16.25
2018-06-22T09:23:32.979Z,16.43
2018-06-22T09:24:32.962Z,16.42
2018-06-22T09:25:32.940Z,16.43
2018-06-22T09:26:32.922Z,16.46
2018-06-22T09:27:32.904Z,16.53
2018-06-22T09:28:32.886Z,16.81
2018-06-22T09:29:32.869Z,17.54
2018-06-22T09:30:32.852Z,17.92
2018-06-22T09:31:32.832Z,18.39
2018-06-22T09:32:32.816Z,18.63
2018-06-22T09:33:32.804Z,18.92
2018-06-22T09:34:32.787Z,19.21
2018-06-22T09:35:32.767Z,19.54
2018-06-22T09:36:32.755Z,19.61
2018-06-22T09:37:32.736Z,19.84
2018-06-22T09:38:32.722Z,20.18
2018-06-22T09:39:32.704Z,20.41
2018-06-22T09:40:32.693Z,20.89
2018-06-22T09:41:32.680Z,21.34
2018-06-22T09:42:32.749Z,21.44
2018-06-22T09:43:32.644Z,21.31
2018-06-22T09:44:32.640Z,20.97
2018-06-22T09:45:32.627Z,20.35
2018-06-22T09:46:32.607Z,20.97
2018-06-22T09:47:32.596Z,21.07
2018-06-22T09:48:32.589Z,20.95
2018-06-22T09:49:32.570Z,20.87
2018-06-22T09:50:32.560Z,20.48
2018-06-22T09:51:32.548Z,20.11
2018-06-22T09:52:32.535Z,19.98
2018-06-22T09:53:32.524Z,19.74
2018-06-22T09:54:32.509Z,19.46
2018-06-22T09:55:32.497Z,19.21
2018-06-22T09:56:32.487Z,18.95
2018-06-22T09:57:32.471Z,18.75
2018-06-22T09:58:32.458Z,18.42
2018-06-22T09:59:32.443Z,18.07
2018-06-22T10:00:32.431Z,17.72
2018-06-22T10:01:32.426Z,17.62
2018-06-22T10:02:32.407Z,17.68
2018-06-22T10:03:32.394Z,17.31
2018-06-22T10:04:32.380Z,17.01
2018-06-22T10:05:32.366Z,16.78
2018-06-22T10:06:32.353Z,16.70
2018-06-22T10:07:32.340Z,16.50
2018-06-22T10:08:32.331Z,16.49
2018-06-22T10:09:32.312Z,16.58
2018-06-22T10:10:32.293Z,16.63
2018-06-22T10:11:32.431Z,16.66
2018-06-22T10:12:32.268Z,16.71
2018-06-22T10:13:32.255Z,16.66
2018-06-22T10:14:32.244Z,16.76
2018-06-22T10:15:32.225Z,17.08
2018-06-22T10:16:32.212Z,18.15
2018-06-22T10:17:32.199Z,19.13
2018-06-22T10:18:32.183Z,20.08
2018-06-22T10:19:32.172Z,20.77
2018-06-22T10:20:32.158Z,21.62
2018-06-22T10:21:32.143Z,22.54
2018-06-22T10:22:32.130Z,23.27
2018-06-22T10:23:32.120Z,23.83
2018-06-22T10:24:32.104Z,24.31
2018-06-22T10:25:32.092Z,24.98
2018-06-22T10:26:32.087Z,25.45
2018-06-22T10:27:32.070Z,25.75
2018-06-22T10:28:32.063Z,25.80
2018-06-22T10:29:32.050Z,25.45
2018-06-22T10:30:32.044Z,25.06
2018-06-22T10:31:32.032Z,24.96
2018-06-22T10:32:32.023Z,24.39
2018-06-22T10:33:32.015Z,23.60
2018-06-22T10:34:32.012Z,22.92
2018-06-22T10:35:31.996Z,22.49
2018-06-22T10:36:31.987Z,21.91
2018-06-22T10:37:31.979Z,21.43
2018-06-22T10:38:31.969Z,20.89
2018-06-22T10:39:31.966Z,20.48
2018-06-22T10:40:31.953Z,20.35
2018-06-22T10:41:31.942Z,20.08
2018-06-22T10:42:31.936Z,19.98
2018-06-22T10:43:31.924Z,19.69
2018-06-22T10:44:31.917Z,19.59
2018-06-22T10:45:31.907Z,19.59
2018-06-22T10:46:32.098Z,19.31
2018-06-22T10:47:31.885Z,19.39
2018-06-22T10:48:31.877Z,19.44
2018-06-22T10:49:31.872Z,19.29
2018-06-22T10:50:31.859Z,19.31
2018-06-22T10:51:31.884Z,19.19
2018-06-22T10:52:31.880Z,18.95
2018-06-22T10:53:31.823Z,18.87
2018-06-22T10:54:31.816Z,18.91
2018-06-22T10:55:31.803Z,18.82
2018-06-22T10:56:31.791Z,18.81
2018-06-22T10:57:31.778Z,18.82
2018-06-22T10:58:31.771Z,18.85
2018-06-22T10:59:31.799Z,19.00
2018-06-22T11:00:31.748Z,19.04
2018-06-22T11:01:31.735Z,19.32
2018-06-22T11:02:31.735Z,19.36
2018-06-22T11:03:31.714Z,19.46
2018-06-22T11:04:31.702Z,19.36
2018-06-22T11:05:31.692Z,19.41
2018-06-22T11:06:31.688Z,19.65
2018-06-22T11:07:31.667Z,19.95
2018-06-22T11:08:31.651Z,20.38
2018-06-22T11:09:31.640Z,20.47
2018-06-22T11:10:31.627Z,20.88
2018-06-22T11:11:31.622Z,21.01
2018-06-22T11:12:31.609Z,21.77
2018-06-22T11:13:31.631Z,22.45
2018-06-22T11:14:31.584Z,23.07
2018-06-22T11:15:31.573Z,23.70
2018-06-22T11:16:31.568Z,24.39
2018-06-22T11:17:31.558Z,24.87
2018-06-22T11:18:31.555Z,25.27
2018-06-22T11:19:31.535Z,25.55
2018-06-22T11:20:31.532Z,25.99
2018-06-22T11:21:31.520Z,26.29
2018-06-22T11:22:31.519Z,26.62
2018-06-22T11:23:31.505Z,26.69
2018-06-22T11:24:31.593Z,26.97
2018-06-22T11:25:31.489Z,26.85
2018-06-22T11:26:31.482Z,27.17
2018-06-22T11:27:31.482Z,27.04
2018-06-22T11:28:31.475Z,27.31
2018-06-22T11:29:31.465Z,27.37
2018-06-22T11:30:31.459Z,27.78
2018-06-22T11:31:31.461Z,28.25
2018-06-22T11:32:31.449Z,28.55
2018-06-22T11:33:31.447Z,29.09
2018-06-22T11:34:31.444Z,29.63
2018-06-22T11:35:31.435Z,30.19
2018-06-22T11:36:31.555Z,29.92
2018-06-22T11:37:31.434Z,29.61
2018-06-22T11:38:31.428Z,29.45
2018-06-22T11:39:31.426Z,29.14
2018-06-22T11:40:31.416Z,28.85
2018-06-22T11:41:31.412Z,28.48
2018-06-22T11:42:31.413Z,27.63
2018-06-22T11:43:31.405Z,26.87
2018-06-22T11:44:31.398Z,26.01
2018-06-22T11:45:31.399Z,25.72
2018-06-22T11:46:31.392Z,25.33
2018-06-22T11:47:31.385Z,25.46
2018-06-22T11:48:31.387Z,25.10
2018-06-22T11:49:31.381Z,24.52
2018-06-22T11:50:31.379Z,24.46
2018-06-22T11:51:31.367Z,24.31
2018-06-22T11:52:31.363Z,23.78
2018-06-22T11:53:31.363Z,23.42
2018-06-22T11:54:31.360Z,23.28
2018-06-22T11:55:31.346Z,23.40
2018-06-22T11:56:31.341Z,23.39
2018-06-22T11:57:31.335Z,23.70
2018-06-22T11:58:31.330Z,24.02
2018-06-22T11:59:31.328Z,24.61
2018-06-22T12:00:31.317Z,24.98
2018-06-22T12:01:31.313Z,25.33
2018-06-22T12:02:31.310Z,25.43
2018-06-22T12:03:31.305Z,25.51
2018-06-22T12:04:31.302Z,25.91
2018-06-22T12:05:31.289Z,26.09
2018-06-22T12:06:31.283Z,26.43
2018-06-22T12:07:31.286Z,26.75
2018-06-22T12:08:31.269Z,26.85
2018-06-22T12:09:31.264Z,26.50
2018-06-22T12:10:31.260Z,26.30
2018-06-22T12:11:31.403Z,26.28
2018-06-22T12:12:31.245Z,26.17
2018-06-22T12:13:31.241Z,26.21
2018-06-22T12:14:31.231Z,26.12
2018-06-22T12:15:31.225Z,26.20
2018-06-22T12:16:31.225Z,25.98
2018-06-22T12:17:31.217Z,25.54
2018-06-22T12:18:31.204Z,24.87
2018-06-22T12:19:31.206Z,25.00
2018-06-22T12:20:31.191Z,25.30
2018-06-22T12:21:31.184Z,25.30
2018-06-22T12:22:31.177Z,24.93
2018-06-22T12:23:31.171Z,24.61
2018-06-22T12:24:31.168Z,24.27
2018-06-22T12:25:31.157Z,24.52
2018-06-22T12:26:31.151Z,24.76
2018-06-22T12:27:31.193Z,24.88
2018-06-22T12:28:31.142Z,24.95
2018-06-22T12:29:31.128Z,25.25
2018-06-22T12:30:31.124Z,25.30
2018-06-22T12:31:31.112Z,25.43
2018-06-22T12:32:31.107Z,25.43
2018-06-22T12:33:31.100Z,25.77
2018-06-22T12:34:31.093Z,25.99
2018-06-22T12:35:31.085Z,26.05
2018-06-22T12:36:31.080Z,25.98
2018-06-22T12:37:31.070Z,26.13
2018-06-22T12:38:31.063Z,26.20
2018-06-22T12:39:31.157Z,26.30
2018-06-22T12:40:31.054Z,26.20
2018-06-22T12:41:31.050Z,26.01
2018-06-22T12:42:31.041Z,26.17
2018-06-22T12:43:31.027Z,26.05
2018-06-22T12:44:31.019Z,25.82
2018-06-22T12:45:31.012Z,25.62
2018-06-22T12:46:31.003Z,25.42
2018-06-22T12:47:30.997Z,25.30
2018-06-22T12:48:30.985Z,25.24
2018-06-22T12:49:30.982Z,25.20
2018-06-22T12:50:30.999Z,25.06
2018-06-22T12:51:30.967Z,24.96
2018-06-22T12:52:30.953Z,24.88